createdAt,value
2018-08-28T00:00:25.293Z,67.30
2018-08-28T00:02:57.746Z,67.00
2018-08-28T00:05:30.325Z,66.90
2018-08-28T00:08:04.868Z,67.10
2018-08-28T00:10:37.807Z,67.10
2018-08-28T00:13:10.647Z,67.80
2018-08-28T00:15:43.504Z,68.60
2018-08-28T00:18:16.100Z,76.90
2018-08-28T00:20:49.021Z,83.00
2018-08-28T00:23:22.559Z,87.50
2018-08-28T00:25:55.422Z,91.70
2018-08-28T00:28:27.937Z,92.00
2018-08-28T00:31:00.771Z,92.40
2018-08-28T00:33:33.643Z,92.70
2018-08-28T00:36:06.121Z,93.00
2018-08-28T00:38:38.899Z,93.40
2018-08-28T00:41:11.741Z,93.60
2018-08-28T00:43:44.592Z,93.80
2018-08-28T00:46:17.277Z,93.90
2018-08-28T00:48:50.053Z,94.10
2018-08-28T00:51:24.339Z,94.20
2018-08-28T00:53:59.053Z,94.30
2018-08-28T00:56:33.420Z,94.40
2018-08-28T00:59:06.060Z,95.20
2018-08-28T01:01:38.794Z,95.10
2018-08-28T01:04:11.235Z,95.30
2018-08-28T01:06:43.885Z,95.40
2018-08-28T01:09:16.690Z,95.70
2018-08-28T01:11:49.633Z,97.00
2018-08-28T01:14:22.931Z,97.00
2018-08-28T01:16:55.887Z,97.20
2018-08-28T01:19:29.252Z,97.50
2018-08-28T01:22:02.953Z,97.90
2018-08-28T01:24:36.251Z,98.50
2018-08-28T01:27:09.627Z,99.20
2018-08-28T01:29:43.641Z,99.30
2018-08-28T01:32:16.457Z,98.80
2018-08-28T01:34:49.165Z,99.20
2018-08-28T01:37:22.553Z,99.10
2018-08-28T01:39:59.234Z,98.90
2018-08-28T01:42:32.463Z,99.10
2018-08-28T01:45:05.459Z,99.00
2018-08-28T01:47:38.518Z,99.30
2018-08-28T01:50:11.513Z,99.20
2018-08-28T01:52:44.482Z,98.90
2018-08-28T01:55:17.106Z,98.80
2018-08-28T01:57:49.773Z,98.50
2018-08-28T02:00:22.752Z,98.80
2018-08-28T02:02:55.338Z,98.60
2018-08-28T02:05:28.223Z,97.70
2018-08-28T02:08:00.888Z,97.00
2018-08-28T02:10:33.329Z,95.60
2018-08-28T02:13:07.319Z,93.20
2018-08-28T02:15:40.545Z,92.60
2018-08-28T02:18:14.368Z,92.30
2018-08-28T02:20:53.774Z,92.10
2018-08-28T02:23:26.441Z,92.70
2018-08-28T02:25:58.979Z,92.10
2018-08-28T02:28:31.861Z,92.10
2018-08-28T02:31:04.969Z,92.10
2018-08-28T02:33:38.002Z,92.20
2018-08-28T02:36:10.873Z,92.40
2018-08-28T02:38:43.707Z,92.70
2018-08-28T02:41:16.690Z,93.00
2018-08-28T02:43:49.926Z,93.30
2018-08-28T02:46:22.667Z,93.30
2018-08-28T02:48:56.201Z,93.50
2018-08-28T02:51:29.292Z,93.70
2018-08-28T02:54:01.786Z,93.60
2018-08-28T02:56:37.057Z,93.70
2018-08-28T02:59:09.884Z,93.90
2018-08-28T03:01:42.772Z,94.00
2018-08-28T03:04:16.659Z,94.10
2018-08-28T03:06:49.341Z,94.40
2018-08-28T03:09:23.560Z,94.50
2018-08-28T03:11:56.342Z,94.70
2018-08-28T03:14:29.333Z,94.80
2018-08-28T03:17:02.496Z,95.00
2018-08-28T03:19:35.727Z,95.20
2018-08-28T03:22:09.753Z,95.40
2018-08-28T03:24:42.428Z,95.70
2018-08-28T03:27:15.184Z,95.80
2018-08-28T03:29:48.037Z,96.00
2018-08-28T03:32:20.511Z,96.20
2018-08-28T03:34:53.414Z,96.30
2018-08-28T03:37:26.142Z,96.50
2018-08-28T03:39:58.917Z,96.70
2018-08-28T03:42:31.826Z,96.80
2018-08-28T03:45:05.278Z,96.90
2018-08-28T03:47:38.197Z,97.10
2018-08-28T03:50:11.243Z,97.30
2018-08-28T03:52:43.826Z,97.60
2018-08-28T03:55:16.848Z,97.50
2018-08-28T03:57:50.587Z,97.60
2018-08-28T04:00:23.471Z,97.70
2018-08-28T04:05:49.626Z,97.90
2018-08-28T04:08:23.348Z,97.90
2018-08-28T04:10:56.126Z,98.10
2018-08-28T04:13:29.121Z,98.30
2018-08-28T04:16:02.122Z,98.50
2018-08-28T04:18:35.330Z,99.00
2018-08-28T04:21:08.129Z,98.90
2018-08-28T04:23:40.984Z,99.10
2018-08-28T04:26:13.873Z,99.50
2018-08-28T04:28:46.864Z,99.30
2018-08-28T04:31:19.711Z,99.50
2018-08-28T04:33:52.291Z,99.50
2018-08-28T04:36:25.070Z,99.90
2018-08-28T04:38:57.761Z,99.80
2018-08-28T04:41:30.314Z,99.80
2018-08-28T04:44:03.782Z,99.90
2018-08-28T04:46:36.596Z,99.90
2018-08-28T04:49:09.353Z,99.90
2018-08-28T04:51:42.274Z,99.90
2018-08-28T04:54:15.017Z,99.90
2018-08-28T04:56:47.787Z,99.90
2018-08-28T04:59:20.634Z,99.90
2018-08-28T05:01:53.345Z,99.90
2018-08-28T05:04:26.281Z,99.90
2018-08-28T05:06:59.204Z,99.90
2018-08-28T05:09:32.253Z,99.90
2018-08-28T05:12:05.570Z,99.90
2018-08-28T05:14:38.573Z,99.90
2018-08-28T05:17:11.551Z,99.90
2018-08-28T05:19:44.804Z,99.90
2018-08-28T05:22:18.002Z,99.90
2018-08-28T05:24:50.782Z,99.90
2018-08-28T05:27:24.529Z,99.90
2018-08-28T05:29:57.661Z,99.90
2018-08-28T05:32:30.440Z,99.90
2018-08-28T05:36:05.990Z,99.90
2018-08-28T05:38:38.784Z,99.90
2018-08-28T05:41:11.718Z,99.90
2018-08-28T05:43:44.387Z,99.90
2018-08-28T05:46:17.925Z,99.90
2018-08-28T05:48:50.640Z,99.90
2018-08-28T05:51:23.564Z,99.90
2018-08-28T05:53:56.274Z,99.90
2018-08-28T05:56:28.940Z,99.90
2018-08-28T05:59:01.713Z,99.90
2018-08-28T06:01:34.435Z,99.90
2018-08-28T06:04:07.366Z,99.90
2018-08-28T06:06:40.159Z,99.90
2018-08-28T06:09:12.730Z,99.90
2018-08-28T06:11:45.588Z,99.90
2018-08-28T06:14:18.327Z,99.90
2018-08-28T06:16:51.251Z,99.90
2018-08-28T06:19:24.073Z,99.90
2018-08-28T06:21:56.669Z,99.90
2018-08-28T06:24:29.412Z,99.90
2018-08-28T06:27:02.144Z,99.90
2018-08-28T06:29:34.927Z,99.90
2018-08-28T06:32:08.127Z,99.90
2018-08-28T06:34:40.842Z,99.90
2018-08-28T06:37:13.769Z,99.90
2018-08-28T06:39:46.478Z,99.90
2018-08-28T06:42:19.312Z,99.90
2018-08-28T06:44:52.048Z,99.90
2018-08-28T06:47:24.710Z,99.90
2018-08-28T06:49:57.668Z,99.90
2018-08-28T06:52:30.391Z,99.90
2018-08-28T06:55:03.485Z,99.90
2018-08-28T06:57:36.322Z,99.90
2018-08-28T07:00:10.983Z,99.90
2018-08-28T07:02:43.848Z,99.90
2018-08-28T07:05:16.687Z,99.90
2018-08-28T07:07:49.466Z,99.90
2018-08-28T07:10:22.216Z,99.90
2018-08-28T07:12:55.004Z,99.90
2018-08-28T07:15:27.807Z,99.90
2018-08-28T07:18:00.784Z,99.90
2018-08-28T07:20:33.519Z,99.90
2018-08-28T07:23:06.493Z,99.90
2018-08-28T07:25:39.530Z,99.90
2018-08-28T07:28:12.340Z,99.90
2018-08-28T07:30:45.040Z,99.90
2018-08-28T07:33:18.401Z,99.90
2018-08-28T07:35:51.321Z,99.90
2018-08-28T07:38:24.449Z,99.90
2018-08-28T07:40:57.379Z,99.90
2018-08-28T07:43:30.097Z,99.90
2018-08-28T07:46:03.311Z,99.90
2018-08-28T07:48:36.125Z,99.90
2018-08-28T07:51:09.010Z,99.90
2018-08-28T07:53:42.278Z,99.90
2018-08-28T07:56:14.967Z,99.90
2018-08-28T07:58:47.796Z,99.90
2018-08-28T08:01:20.778Z,99.90
2018-08-28T08:03:53.446Z,99.90
2018-08-28T08:06:26.093Z,99.90
2018-08-28T08:08:58.071Z,99.90
2018-08-28T08:11:31.009Z,99.90
2018-08-28T08:14:04.060Z,99.90
2018-08-28T08:29:40.280Z,99.90
2018-08-28T08:32:13.025Z,99.90
2018-08-28T08:34:45.660Z,99.90
2018-08-28T08:37:19.293Z,99.90
2018-08-28T08:39:53.489Z,99.90
2018-08-28T08:42:26.261Z,99.90
2018-08-28T08:44:58.885Z,99.90
2018-08-28T08:47:32.275Z,99.90
2018-08-28T08:50:04.938Z,99.90
2018-08-28T08:52:37.941Z,99.90
2018-08-28T08:55:10.676Z,99.90
2018-08-28T08:57:43.359Z,99.90
2018-08-28T09:00:16.231Z,99.90
2018-08-28T09:02:48.952Z,99.90
2018-08-28T09:05:21.627Z,99.90
2018-08-28T09:07:54.528Z,99.90
2018-08-28T09:10:27.205Z,99.90
2018-08-28T09:12:59.842Z,99.90
2018-08-28T09:15:32.738Z,99.90
2018-08-28T09:18:05.620Z,99.90
2018-08-28T09:20:38.212Z,99.90
2018-08-28T09:23:10.690Z,99.90
2018-08-28T09:25:44.280Z,99.90
2018-08-28T09:28:17.094Z,99.90
2018-08-28T09:30:49.768Z,99.90
2018-08-28T09:33:23.605Z,99.90
2018-08-28T09:35:56.398Z,99.90
2018-08-28T09:38:29.183Z,99.90
2018-08-28T09:41:02.115Z,99.90
2018-08-28T09:43:34.837Z,99.90
2018-08-28T09:46:08.722Z,99.90
2018-08-28T09:48:41.494Z,99.90
2018-08-28T09:51:14.175Z,99.90
2018-08-28T09:53:46.993Z,99.90
2018-08-28T09:56:19.645Z,99.90
2018-08-28T09:58:52.291Z,99.90
2018-08-28T10:01:29.375Z,99.90
2018-08-28T10:04:02.081Z,99.90
2018-08-28T10:06:34.985Z,99.90
2018-08-28T10:09:14.735Z,99.90
2018-08-28T10:11:47.548Z,99.90
2018-08-28T10:14:21.045Z,99.90
2018-08-28T10:16:53.647Z,99.90
2018-08-28T10:19:26.229Z,99.90
2018-08-28T10:22:00.145Z,99.90
2018-08-28T10:24:35.859Z,99.90
2018-08-28T10:27:08.577Z,99.90
2018-08-28T10:29:41.206Z,99.90
2018-08-28T10:32:13.910Z,99.90
2018-08-28T10:34:46.473Z,99.90
2018-08-28T10:37:19.048Z,99.90
2018-08-28T10:39:51.830Z,99.90
2018-08-28T10:42:24.377Z,99.90
2018-08-28T10:44:57.032Z,99.90
2018-08-28T10:47:29.825Z,99.90
2018-08-28T10:50:02.573Z,99.90
2018-08-28T10:52:35.188Z,99.90
2018-08-28T10:55:18.812Z,99.90
2018-08-28T10:58:03.196Z,99.90
2018-08-28T11:00:48.013Z,99.90
2018-08-28T11:03:25.712Z,99.90
2018-08-28T11:05:58.469Z,99.90
2018-08-28T11:08:31.111Z,99.90
2018-08-28T11:11:03.913Z,99.90
2018-08-28T11:13:36.477Z,99.90
2018-08-28T11:16:10.002Z,99.90
2018-08-28T11:18:42.807Z,99.90
2018-08-28T11:21:15.464Z,99.90
2018-08-28T11:23:48.281Z,99.90
2018-08-28T11:26:20.807Z,99.90
2018-08-28T11:28:54.142Z,99.90
2018-08-28T11:31:26.867Z,99.90
2018-08-28T11:33:59.473Z,99.90
2018-08-28T11:36:32.224Z,99.90
2018-08-28T11:39:04.958Z,99.90
2018-08-28T11:41:39.810Z,99.90
2018-08-28T11:44:12.526Z,99.90
2018-08-28T11:46:45.673Z,99.90
2018-08-28T11:49:18.413Z,99.90
2018-08-28T11:51:51.002Z,99.90
2018-08-28T11:54:23.673Z,99.90
2018-08-28T11:56:56.766Z,99.90
2018-08-28T11:59:29.584Z,99.90
2018-08-28T12:02:02.284Z,99.90
2018-08-28T12:04:35.408Z,99.90
2018-08-28T12:07:08.685Z,99.90
2018-08-28T12:09:41.384Z,99.90
2018-08-28T12:12:15.664Z,99.90
2018-08-28T12:14:53.354Z,99.90
2018-08-28T12:17:27.095Z,99.90
2018-08-28T12:20:01.709Z,99.90
2018-08-28T12:22:34.500Z,99.90
2018-08-28T12:25:20.362Z,99.90
2018-08-28T12:28:01.926Z,99.90
2018-08-28T12:30:35.659Z,99.90
2018-08-28T12:33:09.037Z,99.90
2018-08-28T12:35:42.780Z,99.90
2018-08-28T12:38:20.166Z,99.90
2018-08-28T12:40:57.460Z,99.90
2018-08-28T12:43:32.279Z,99.90
2018-08-28T12:46:07.111Z,99.90
2018-08-28T12:48:39.884Z,99.90
2018-08-28T12:51:13.276Z,99.90
2018-08-28T12:53:57.199Z,99.90
2018-08-28T12:56:35.909Z,99.90
2018-08-28T12:59:13.016Z,99.90
2018-08-28T13:01:53.840Z,99.90
2018-08-28T13:04:27.569Z,99.90
2018-08-28T13:07:01.792Z,99.90
2018-08-28T13:09:34.815Z,99.90
2018-08-28T13:12:09.403Z,99.90
2018-08-28T13:14:42.395Z,99.90
2018-08-28T13:17:15.434Z,99.90
2018-08-28T13:19:50.312Z,99.90
2018-08-28T13:22:24.093Z,99.90
2018-08-28T13:24:59.363Z,99.90
2018-08-28T13:27:33.419Z,99.90
2018-08-28T13:30:12.475Z,99.90
2018-08-28T13:32:47.905Z,99.90
2018-08-28T13:35:25.667Z,99.90
2018-08-28T13:37:58.621Z,99.90
2018-08-28T13:43:21.933Z,99.90
2018-08-28T13:45:57.512Z,99.90
2018-08-28T13:51:11.829Z,99.90
2018-08-28T13:53:45.199Z,99.90
2018-08-28T13:56:19.812Z,99.90
2018-08-28T13:58:52.788Z,99.90
2018-08-28T14:01:25.820Z,99.90
2018-08-28T14:03:59.950Z,99.90
2018-08-28T14:06:34.681Z,99.90
2018-08-28T14:09:13.700Z,99.90
2018-08-28T14:11:51.327Z,99.40
2018-08-28T14:14:24.789Z,99.60
2018-08-28T14:16:58.038Z,99.00
2018-08-28T14:19:36.713Z,98.30
2018-08-28T14:22:12.687Z,98.60
2018-08-28T14:24:46.013Z,98.30
2018-08-28T14:27:22.770Z,98.00
2018-08-28T14:30:03.875Z,97.80
2018-08-28T14:32:37.084Z,97.30
2018-08-28T14:35:10.076Z,97.20
2018-08-28T14:37:43.381Z,96.80
2018-08-28T14:40:17.017Z,96.60
2018-08-28T14:42:52.284Z,96.60
2018-08-28T14:45:27.045Z,96.70
2018-08-28T14:48:04.644Z,96.30
2018-08-28T14:50:38.877Z,96.20
2018-08-28T14:53:13.014Z,96.10
2018-08-28T14:55:46.712Z,96.40
2018-08-28T14:58:20.811Z,96.30
2018-08-28T15:00:54.140Z,96.20
2018-08-28T15:03:27.706Z,96.30
2018-08-28T15:06:00.547Z,96.20
2018-08-28T15:08:36.391Z,96.00
2018-08-28T15:11:11.583Z,95.70
2018-08-28T15:13:44.981Z,95.70
2018-08-28T15:16:18.780Z,95.60
2018-08-28T15:18:52.168Z,95.60
2018-08-28T15:21:26.947Z,95.40
2018-08-28T15:24:00.523Z,95.20
2018-08-28T15:26:34.077Z,95.10
2018-08-28T15:29:07.145Z,95.20
2018-08-28T15:31:40.458Z,94.70
2018-08-28T15:34:14.918Z,94.80
2018-08-28T15:36:50.388Z,94.60
2018-08-28T15:39:23.790Z,95.20
2018-08-28T15:41:58.827Z,95.20
2018-08-28T15:44:31.660Z,95.00
2018-08-28T15:47:05.515Z,94.90
2018-08-28T15:49:38.844Z,94.80
2018-08-28T15:52:12.117Z,94.80
2018-08-28T15:54:45.834Z,94.70
2018-08-28T15:57:18.726Z,94.60
2018-08-28T15:59:51.787Z,94.20
2018-08-28T16:02:29.038Z,94.60
2018-08-28T16:05:02.132Z,94.50
2018-08-28T16:07:35.499Z,94.70
2018-08-28T16:10:08.714Z,94.90
2018-08-28T16:12:58.817Z,94.60
2018-08-28T16:15:33.911Z,94.40
2018-08-28T16:18:06.949Z,94.30
2018-08-28T16:20:40.206Z,94.40
2018-08-28T16:23:17.723Z,93.90
2018-08-28T16:25:51.089Z,93.20
2018-08-28T16:28:24.262Z,93.10
2018-08-28T16:30:57.094Z,93.10
2018-08-28T16:33:29.925Z,92.60
2018-08-28T16:36:03.796Z,92.50
2018-08-28T16:38:37.113Z,92.70
2018-08-28T16:41:11.366Z,92.60
2018-08-28T16:43:48.255Z,92.10
2018-08-28T16:46:21.320Z,92.00
2018-08-28T16:48:54.599Z,91.40
2018-08-28T16:51:27.464Z,91.60
2018-08-28T16:54:01.066Z,91.80
2018-08-28T16:56:33.961Z,91.00
2018-08-28T16:59:07.372Z,90.50
2018-08-28T17:01:40.433Z,91.20
2018-08-28T17:04:14.041Z,91.50
2018-08-28T17:06:54.445Z,91.40
2018-08-28T17:09:27.982Z,91.40
2018-08-28T17:12:01.938Z,91.20
2018-08-28T17:14:35.079Z,90.70
2018-08-28T17:17:08.660Z,90.60
2018-08-28T17:19:45.207Z,90.80
2018-08-28T17:22:21.945Z,90.50
2018-08-28T17:24:55.053Z,90.40
2018-08-28T17:27:32.137Z,90.30
2018-08-28T17:30:05.254Z,89.60
2018-08-28T17:32:40.349Z,90.60
2018-08-28T17:35:13.777Z,90.50
2018-08-28T17:37:47.003Z,90.40
2018-08-28T17:40:20.614Z,90.30
2018-08-28T17:42:55.809Z,88.70
2018-08-28T17:45:29.989Z,88.60
2018-08-28T17:48:02.802Z,88.60
2018-08-28T17:50:35.690Z,87.80
2018-08-28T17:53:09.152Z,86.60
2018-08-28T17:55:43.237Z,85.90
2018-08-28T17:58:16.361Z,85.50
2018-08-28T18:00:50.325Z,84.80
2018-08-28T18:03:24.725Z,85.10
2018-08-28T18:05:57.782Z,84.90
2018-08-28T18:08:31.117Z,84.40
2018-08-28T18:11:04.362Z,83.00
2018-08-28T18:13:37.854Z,84.50
2018-08-28T18:16:11.933Z,84.10
2018-08-28T18:18:45.286Z,83.50
2018-08-28T18:21:21.257Z,82.50
2018-08-28T18:23:55.232Z,80.10
2018-08-28T18:26:28.818Z,80.00
2018-08-28T18:29:04.346Z,79.60
2018-08-28T18:31:37.994Z,80.80
2018-08-28T18:34:11.868Z,79.90
2018-08-28T18:36:45.978Z,79.80
2018-08-28T18:39:19.667Z,78.50
2018-08-28T18:41:55.943Z,76.30
2018-08-28T18:44:28.791Z,78.10
2018-08-28T18:47:01.885Z,77.20
2018-08-28T18:49:35.209Z,77.10
2018-08-28T18:52:08.116Z,76.80
2018-08-28T18:54:49.091Z,76.20
2018-08-28T18:57:23.437Z,76.60
2018-08-28T18:59:57.214Z,76.70
2018-08-28T19:02:30.565Z,76.20
2018-08-28T19:05:04.734Z,77.20
2018-08-28T19:07:37.603Z,77.30
2018-08-28T19:10:13.339Z,76.90
2018-08-28T19:12:46.462Z,73.60
2018-08-28T19:15:21.369Z,72.00
2018-08-28T19:17:58.779Z,70.60
2018-08-28T19:20:33.182Z,70.80
2018-08-28T19:23:07.493Z,70.80
2018-08-28T19:25:42.725Z,71.20
2018-08-28T19:28:17.562Z,69.90
2018-08-28T19:30:51.639Z,69.50
2018-08-28T19:33:25.399Z,69.30
2018-08-28T19:35:58.599Z,70.10
2018-08-28T19:38:32.762Z,69.50
2018-08-28T19:41:06.526Z,67.00
2018-08-28T19:43:44.212Z,68.80
2018-08-28T19:46:18.409Z,66.30
2018-08-28T19:48:52.988Z,66.10
2018-08-28T19:51:29.786Z,65.10
2018-08-28T19:54:03.680Z,63.70
2018-08-28T19:56:36.412Z,63.40
2018-08-28T19:59:09.565Z,64.60
2018-08-28T20:05:42.165Z,65.00
2018-08-28T20:08:15.093Z,64.00
2018-08-28T20:10:48.031Z,63.60
2018-08-28T20:13:22.406Z,64.80
2018-08-28T20:16:04.897Z,63.50
2018-08-28T20:18:39.441Z,62.70
2018-08-28T20:21:13.132Z,63.30
2018-08-28T20:23:46.766Z,63.40
2018-08-28T20:26:19.891Z,63.00
2018-08-28T20:28:52.626Z,61.60
2018-08-28T20:31:28.723Z,63.00
2018-08-28T20:34:03.272Z,63.20
2018-08-28T20:36:46.251Z,61.90
2018-08-28T20:39:19.780Z,61.60
2018-08-28T20:41:54.415Z,61.60
2018-08-28T20:44:27.337Z,61.10
2018-08-28T20:47:00.425Z,58.90
2018-08-28T20:49:36.983Z,58.10
2018-08-28T20:52:09.975Z,58.20
2018-08-28T20:54:42.794Z,58.00
2018-08-28T20:57:15.499Z,57.70
2018-08-28T20:59:48.757Z,57.70
2018-08-28T21:02:21.928Z,58.00
2018-08-28T21:04:54.642Z,57.80
2018-08-28T21:07:27.153Z,58.80
2018-08-28T21:10:00.095Z,59.60
2018-08-28T21:12:32.787Z,60.30
2018-08-28T21:15:05.952Z,61.30
2018-08-28T21:17:38.604Z,65.20
2018-08-28T21:20:12.305Z,68.30
2018-08-28T21:22:45.055Z,72.60
2018-08-28T21:25:18.110Z,72.50
2018-08-28T21:27:53.047Z,72.60
2018-08-28T21:30:26.474Z,74.40
2018-08-28T21:32:59.077Z,78.00
2018-08-28T21:35:32.021Z,80.00
2018-08-28T21:38:04.483Z,82.00
2018-08-28T21:40:38.631Z,85.10
2018-08-28T21:43:11.771Z,86.20
2018-08-28T21:45:44.853Z,88.10
2018-08-28T21:48:18.389Z,90.50
2018-08-28T21:50:51.564Z,91.40
2018-08-28T21:53:26.194Z,93.20
2018-08-28T21:56:01.338Z,93.80
2018-08-28T21:58:37.362Z,95.60
2018-08-28T22:01:17.221Z,95.70
2018-08-28T22:03:50.166Z,96.00
2018-08-28T22:06:27.248Z,96.30
2018-08-28T22:08:59.898Z,96.70
2018-08-28T22:11:33.225Z,97.20
2018-08-28T22:14:08.794Z,97.40
2018-08-28T22:16:41.616Z,97.60
2018-08-28T22:19:14.573Z,97.80
2018-08-28T22:21:47.013Z,97.90
2018-08-28T22:24:19.542Z,98.20
2018-08-28T22:26:52.507Z,98.20
2018-08-28T22:29:26.076Z,98.30
2018-08-28T22:31:59.698Z,98.10
2018-08-28T22:34:33.183Z,98.10
2018-08-28T22:37:06.899Z,97.90
2018-08-28T22:39:39.601Z,97.90
2018-08-28T22:42:13.747Z,98.30
2018-08-28T22:44:47.085Z,98.30
2018-08-28T22:47:21.408Z,98.40
2018-08-28T22:49:57.085Z,99.70
2018-08-28T22:52:29.815Z,99.60
2018-08-28T22:55:04.922Z,99.70
2018-08-28T22:57:39.711Z,99.90
2018-08-28T23:00:12.870Z,99.90
2018-08-28T23:02:45.513Z,99.80
2018-08-28T23:05:18.166Z,99.50
2018-08-28T23:07:50.998Z,99.20
2018-08-28T23:10:24.621Z,99.10
2018-08-28T23:12:57.680Z,99.10
2018-08-28T23:15:31.102Z,99.30
2018-08-28T23:18:04.001Z,99.20
2018-08-28T23:20:39.090Z,98.90
2018-08-28T23:23:11.696Z,98.80
2018-08-28T23:25:44.773Z,98.80
2018-08-28T23:28:17.617Z,98.70
2018-08-28T23:30:50.333Z,98.30
2018-08-28T23:33:23.124Z,98.00
2018-08-28T23:35:55.945Z,98.10
2018-08-28T23:38:30.858Z,98.00
2018-08-28T23:41:03.985Z,97.90
2018-08-28T23:43:37.815Z,97.70
2018-08-28T23:46:10.538Z,97.10
2018-08-28T23:48:43.252Z,97.00
2018-08-28T23:51:17.857Z,96.80
2018-08-28T23:53:50.589Z,96.60
2018-08-28T23:56:24.962Z,96.40
2018-08-28T23:58:59.434Z,96.30
